Terminal Aerodrome Forecast
Issued by NWS

Home | Current Version | Previous Version | Text Only | Print | Product List | Glossary On
Versions: 1 2 3 4 5 6 7 8 9 10 11 12 13 14 15 16 17 18
000
FTUS43 KICT 030700 AAA
TAFCNU
TAF AMD
KCNU 030710Z 0307/0406 14007KT P6SM VCTS BKN050CB OVC070
      TEMPO 0307/0308 5SM TSRA SCT035 OVC070CB
     FM031200 16010KT 6SM BR BKN120
     FM031600 19017G26KT P6SM FEW150
     FM040100 17011KT P6SM SKC=

USA.gov is the U.S. government's official web portal to all federal, state and local government web resources and services.